Anjeliersgracht — PCGQ — position and weather

sailwx.info

Track history (hours):
 
Tides and Currents Weather Stations Pressure Air Temp Water Temp Dewpoint Dewpoint Depression Visibility Wind Speed Wind Dir Waves Ship Positions

Anjeliersgracht

Last reported at 2016-Jul-30 18:00 UTC. Time now 2016-Jul-30 20:47 UTC.
Position N 32°12' W 072°54'.

Length 130 m; beam 19 m; draft 9 m.

Type: Cargo ship. MMSI: 244716000.

Wind from 230 at 3 knots

Waves 0.5 meters (2 feet), 3 second period

Barometer 1019.5 mb
Air temperature 31.0 ° C
Visibility: greater than 10.8 NM
Dewpoint 26.4 ° C
Water temperature 29.4 ° C

Date/timePositionNaut miles runAvg speedWind from/ knotsBaromVisibWave heightAir tempDewpointWater temp
2016-Jul-30 18:00N 32°12' W 072°54'14012.9 230 / 31019.510.8 0.531.026.429.4
2016-Jul-30 07:08N 31°56' W 075°38'23813.3
2016-Jul-29 13:18N 31°57' W 080°18'1013.1
2016-Jul-29 12:31N 31°57' W 080°30'1313.4
2016-Jul-29 11:33N 31°59' W 080°45'1413.6
2016-Jul-29 10:33N 32°05' W 080°59'4 3.8
2016-Jul-29 09:29N 32°05' W 081°04'0 0.0
2016-Jul-29 08:29N 32°05' W 081°04'0 0.0
2016-Jul-29 07:29N 32°05' W 081°04'0 0.0
2016-Jul-29 06:29N 32°05' W 081°04'0 0.0
2016-Jul-29 05:23N 32°05' W 081°04'0 0.0
2016-Jul-29 04:29N 32°05' W 081°04'0 0.0
2016-Jul-29 03:23N 32°05' W 081°04'0 0.0
2016-Jul-29 02:29N 32°05' W 081°04'0 0.0
2016-Jul-29 01:29N 32°05' W 081°04'0 0.0
2016-Jul-29 00:29N 32°05' W 081°04'0 0.0
2016-Jul-28 23:29N 32°05' W 081°04'0 0.0
2016-Jul-28 22:29N 32°05' W 081°04'2 2.2
2016-Jul-28 21:33N 32°06' W 081°06'0 0.0
2016-Jul-28 20:28N 32°06' W 081°06'0 0.0
2016-Jul-28 19:28N 32°06' W 081°06'0 0.0
2016-Jul-28 18:16N 32°06' W 081°06'0 0.0
2016-Jul-28 17:28N 32°06' W 081°06'0 0.0
2016-Jul-28 16:28N 32°06' W 081°06'0 0.0
2016-Jul-28 15:28N 32°06' W 081°06'0 0.0
2016-Jul-28 14:28N 32°06' W 081°06'0 0.0
2016-Jul-28 13:28N 32°06' W 081°06'0 0.0
2016-Jul-28 12:34N 32°06' W 081°06'0 0.0
2016-Jul-28 11:33N 32°06' W 081°06'0 0.0
2016-Jul-28 10:33N 32°06' W 081°06'0 0.0
2016-Jul-28 09:33N 32°06' W 081°06'0 0.0
2016-Jul-28 08:15N 32°06' W 081°06'0 0.0
2016-Jul-28 07:33N 32°06' W 081°06'0 0.0
2016-Jul-28 06:33N 32°06' W 081°06'0 0.0
2016-Jul-28 05:21N 32°06' W 081°06'0 0.0
2016-Jul-28 04:33N 32°06' W 081°06'0 0.0
2016-Jul-28 03:33N 32°06' W 081°06'0 0.0
2016-Jul-28 02:33N 32°06' W 081°06'0 0.0
2016-Jul-28 01:33N 32°06' W 081°06'0 0.0
2016-Jul-28 00:33N 32°06' W 081°06'0 0.0
2016-Jul-27 23:33N 32°06' W 081°06'0 0.0
2016-Jul-27 22:33N 32°06' W 081°06'0 0.0
2016-Jul-27 21:33N 32°06' W 081°06'0 0.0
2016-Jul-27 20:33N 32°06' W 081°06'0 0.0
2016-Jul-27 19:33N 32°06' W 081°06'0 0.0
2016-Jul-27 18:33N 32°06' W 081°06'0 0.0
2016-Jul-27 17:33N 32°06' W 081°06'0 0.0
2016-Jul-27 16:33N 32°06' W 081°06'0 0.0
2016-Jul-27 15:33N 32°06' W 081°06'0 0.0
2016-Jul-27 14:33N 32°06' W 081°06'0 0.0
2016-Jul-27 13:27N 32°06' W 081°06'0 0.0
2016-Jul-27 12:33N 32°06' W 081°06'0 0.0
2016-Jul-27 11:27N 32°06' W 081°06'0 0.0
2016-Jul-27 10:33N 32°06' W 081°06'0 0.0
2016-Jul-27 09:33N 32°06' W 081°06'0 0.0
2016-Jul-27 08:27N 32°06' W 081°06'0 0.0
2016-Jul-27 07:33N 32°06' W 081°06'0 0.0
2016-Jul-27 06:27N 32°06' W 081°06'0 0.0
2016-Jul-27 05:27N 32°06' W 081°06'0 0.0
2016-Jul-27 04:32N 32°06' W 081°06'0 0.0
2016-Jul-27 03:32N 32°06' W 081°06'0 0.0
2016-Jul-27 02:32N 32°06' W 081°06'0 0.0
2016-Jul-27 01:32N 32°06' W 081°06'0 0.0
2016-Jul-27 00:33N 32°06' W 081°06'6 5.9
2016-Jul-26 23:33N 32°05' W 080°59'1010.3
2016-Jul-26 22:33N 32°01' W 080°48'1211.7
2016-Jul-26 21:32N 31°54' W 080°37'1 1.0
2016-Jul-26 20:33N 31°54' W 080°36'2 0.3
2016-Jul-26 14:32N 31°52' W 080°35'30216.6
2016-Jul-25 20:20N 26°53' W 079°45'1518.7
2016-Jul-25 19:33N 26°38' W 079°46'1818.5
2016-Jul-25 18:33N 26°20' W 079°47'1818.2
2016-Jul-25 17:33N 26°02' W 079°49'  
2016-Jul-22 01:34N 29°45' W 090°01'1111.0
2016-Jul-22 00:34N 29°55' W 089°56'3 3.4
2016-Jul-21 23:33N 29°57' W 089°60'0 0.0
2016-Jul-21 22:33N 29°57' W 089°60'0 0.0
2016-Jul-21 21:33N 29°57' W 089°60'0 0.0
2016-Jul-21 20:33N 29°57' W 089°60'0 0.0
2016-Jul-21 19:33N 29°57' W 089°60'0 0.0
2016-Jul-21 18:33N 29°57' W 089°60'0 0.0
2016-Jul-21 17:33N 29°57' W 089°60'0 0.0
2016-Jul-21 16:33N 29°57' W 089°60'0 0.0
2016-Jul-21 15:33N 29°57' W 089°60'0 0.0
2016-Jul-21 14:33N 29°57' W 089°60'0 0.0
2016-Jul-21 13:33N 29°57' W 089°60'0 0.0
2016-Jul-21 12:33N 29°57' W 089°60'0 0.0
2016-Jul-21 11:33N 29°57' W 089°60'0 0.0
2016-Jul-21 10:33N 29°57' W 089°60'0 0.0
2016-Jul-21 09:33N 29°57' W 089°60'0 0.0
2016-Jul-21 08:33N 29°57' W 089°60'0 0.0
2016-Jul-21 07:33N 29°57' W 089°60'0 0.0
2016-Jul-21 06:32N 29°57' W 089°60'0 0.0
2016-Jul-21 05:32N 29°57' W 089°60'0 0.0
2016-Jul-21 04:32N 29°57' W 089°60'0 0.0
2016-Jul-21 03:32N 29°57' W 089°60'0 0.0
2016-Jul-21 02:32N 29°57' W 089°60'0 0.0
2016-Jul-21 01:32N 29°57' W 089°60'0 0.0
2016-Jul-21 00:26N 29°57' W 089°60'0 0.0
2016-Jul-20 23:32N 29°57' W 089°60'0 0.0
2016-Jul-20 22:32N 29°57' W 089°60'0 0.0
2016-Jul-20 21:32N 29°57' W 089°60'0 0.0
2016-Jul-20 20:32N 29°57' W 089°60'0 0.0
2016-Jul-20 19:32N 29°57' W 089°60'0 0.0
2016-Jul-20 18:32N 29°57' W 089°60'  
Track history (hours):
 
Tides and Currents Weather Stations Pressure Air Temp Water Temp Dewpoint Dewpoint Depression Visibility Wind Speed Wind Dir Waves Ship Positions

Anjeliersgracht

Last reported at 2016-Jul-30 18:00 UTC. Time now 2016-Jul-30 20:47 UTC.
Position N 32°12' W 072°54'.

Length 130 m; beam 19 m; draft 9 m.

Type: Cargo ship. MMSI: 244716000.

Wind from 230 at 3 knots

Waves 0.5 meters (2 feet), 3 second period

Barometer 1019.5 mb
Air temperature 31.0 ° C
Visibility: greater than 10.8 NM
Dewpoint 26.4 ° C
Water temperature 29.4 ° C

Date/timePositionNaut miles runAvg speedWind from/ knotsBaromVisibWave heightAir tempDewpointWater temp
2016-Jul-30 18:00N 32°12' W 072°54'14012.9 230 / 31019.510.8 0.531.026.429.4
2016-Jul-30 07:08N 31°56' W 075°38'23813.3
2016-Jul-29 13:18N 31°57' W 080°18'1013.1
2016-Jul-29 12:31N 31°57' W 080°30'1313.4
2016-Jul-29 11:33N 31°59' W 080°45'1413.6
2016-Jul-29 10:33N 32°05' W 080°59'4 3.8
2016-Jul-29 09:29N 32°05' W 081°04'0 0.0
2016-Jul-29 08:29N 32°05' W 081°04'0 0.0
2016-Jul-29 07:29N 32°05' W 081°04'0 0.0
2016-Jul-29 06:29N 32°05' W 081°04'0 0.0
2016-Jul-29 05:23N 32°05' W 081°04'0 0.0
2016-Jul-29 04:29N 32°05' W 081°04'0 0.0
2016-Jul-29 03:23N 32°05' W 081°04'0 0.0
2016-Jul-29 02:29N 32°05' W 081°04'0 0.0
2016-Jul-29 01:29N 32°05' W 081°04'0 0.0
2016-Jul-29 00:29N 32°05' W 081°04'0 0.0
2016-Jul-28 23:29N 32°05' W 081°04'0 0.0
2016-Jul-28 22:29N 32°05' W 081°04'2 2.2
2016-Jul-28 21:33N 32°06' W 081°06'0 0.0
2016-Jul-28 20:28N 32°06' W 081°06'0 0.0
2016-Jul-28 19:28N 32°06' W 081°06'0 0.0
2016-Jul-28 18:16N 32°06' W 081°06'0 0.0
2016-Jul-28 17:28N 32°06' W 081°06'0 0.0
2016-Jul-28 16:28N 32°06' W 081°06'0 0.0
2016-Jul-28 15:28N 32°06' W 081°06'0 0.0
2016-Jul-28 14:28N 32°06' W 081°06'0 0.0
2016-Jul-28 13:28N 32°06' W 081°06'0 0.0
2016-Jul-28 12:34N 32°06' W 081°06'0 0.0
2016-Jul-28 11:33N 32°06' W 081°06'0 0.0
2016-Jul-28 10:33N 32°06' W 081°06'0 0.0
2016-Jul-28 09:33N 32°06' W 081°06'0 0.0
2016-Jul-28 08:15N 32°06' W 081°06'0 0.0
2016-Jul-28 07:33N 32°06' W 081°06'0 0.0
2016-Jul-28 06:33N 32°06' W 081°06'0 0.0
2016-Jul-28 05:21N 32°06' W 081°06'0 0.0
2016-Jul-28 04:33N 32°06' W 081°06'0 0.0
2016-Jul-28 03:33N 32°06' W 081°06'0 0.0
2016-Jul-28 02:33N 32°06' W 081°06'0 0.0
2016-Jul-28 01:33N 32°06' W 081°06'0 0.0
2016-Jul-28 00:33N 32°06' W 081°06'0 0.0
2016-Jul-27 23:33N 32°06' W 081°06'0 0.0
2016-Jul-27 22:33N 32°06' W 081°06'0 0.0
2016-Jul-27 21:33N 32°06' W 081°06'0 0.0
2016-Jul-27 20:33N 32°06' W 081°06'0 0.0
2016-Jul-27 19:33N 32°06' W 081°06'0 0.0
2016-Jul-27 18:33N 32°06' W 081°06'0 0.0
2016-Jul-27 17:33N 32°06' W 081°06'0 0.0
2016-Jul-27 16:33N 32°06' W 081°06'0 0.0
2016-Jul-27 15:33N 32°06' W 081°06'0 0.0
2016-Jul-27 14:33N 32°06' W 081°06'0 0.0
2016-Jul-27 13:27N 32°06' W 081°06'0 0.0
2016-Jul-27 12:33N 32°06' W 081°06'0 0.0
2016-Jul-27 11:27N 32°06' W 081°06'0 0.0
2016-Jul-27 10:33N 32°06' W 081°06'0 0.0
2016-Jul-27 09:33N 32°06' W 081°06'0 0.0
2016-Jul-27 08:27N 32°06' W 081°06'0 0.0
2016-Jul-27 07:33N 32°06' W 081°06'0 0.0
2016-Jul-27 06:27N 32°06' W 081°06'0 0.0
2016-Jul-27 05:27N 32°06' W 081°06'0 0.0
2016-Jul-27 04:32N 32°06' W 081°06'0 0.0
2016-Jul-27 03:32N 32°06' W 081°06'0 0.0
2016-Jul-27 02:32N 32°06' W 081°06'0 0.0
2016-Jul-27 01:32N 32°06' W 081°06'0 0.0
2016-Jul-27 00:33N 32°06' W 081°06'6 5.9
2016-Jul-26 23:33N 32°05' W 080°59'1010.3
2016-Jul-26 22:33N 32°01' W 080°48'1211.7
2016-Jul-26 21:32N 31°54' W 080°37'1 1.0
2016-Jul-26 20:33N 31°54' W 080°36'2 0.3
2016-Jul-26 14:32N 31°52' W 080°35'30216.6
2016-Jul-25 20:20N 26°53' W 079°45'1518.7
2016-Jul-25 19:33N 26°38' W 079°46'1818.5
2016-Jul-25 18:33N 26°20' W 079°47'1818.2
2016-Jul-25 17:33N 26°02' W 079°49'  
2016-Jul-22 01:34N 29°45' W 090°01'1111.0
2016-Jul-22 00:34N 29°55' W 089°56'3 3.4
2016-Jul-21 23:33N 29°57' W 089°60'0 0.0
2016-Jul-21 22:33N 29°57' W 089°60'0 0.0
2016-Jul-21 21:33N 29°57' W 089°60'0 0.0
2016-Jul-21 20:33N 29°57' W 089°60'0 0.0
2016-Jul-21 19:33N 29°57' W 089°60'0 0.0
2016-Jul-21 18:33N 29°57' W 089°60'0 0.0
2016-Jul-21 17:33N 29°57' W 089°60'0 0.0
2016-Jul-21 16:33N 29°57' W 089°60'0 0.0
2016-Jul-21 15:33N 29°57' W 089°60'0 0.0
2016-Jul-21 14:33N 29°57' W 089°60'0 0.0
2016-Jul-21 13:33N 29°57' W 089°60'0 0.0
2016-Jul-21 12:33N 29°57' W 089°60'0 0.0
2016-Jul-21 11:33N 29°57' W 089°60'0 0.0
2016-Jul-21 10:33N 29°57' W 089°60'0 0.0
2016-Jul-21 09:33N 29°57' W 089°60'0 0.0
2016-Jul-21 08:33N 29°57' W 089°60'0 0.0
2016-Jul-21 07:33N 29°57' W 089°60'0 0.0
2016-Jul-21 06:32N 29°57' W 089°60'0 0.0
2016-Jul-21 05:32N 29°57' W 089°60'0 0.0
2016-Jul-21 04:32N 29°57' W 089°60'0 0.0
2016-Jul-21 03:32N 29°57' W 089°60'0 0.0
2016-Jul-21 02:32N 29°57' W 089°60'0 0.0
2016-Jul-21 01:32N 29°57' W 089°60'0 0.0
2016-Jul-21 00:26N 29°57' W 089°60'0 0.0
2016-Jul-20 23:32N 29°57' W 089°60'0 0.0
2016-Jul-20 22:32N 29°57' W 089°60'0 0.0
2016-Jul-20 21:32N 29°57' W 089°60'0 0.0
2016-Jul-20 20:32N 29°57' W 089°60'0 0.0
2016-Jul-20 19:32N 29°57' W 089°60'0 0.0
2016-Jul-20 18:32N 29°57' W 089°60'  

Dump ship's entire track history